Gold Bar, WA (98251)

9:18 AM PDT on August 30, 2014 (GMT -0700)
Skykomish Valley at MIR | Change Station
CLOSE
Current Station
Personal Weather Station
Location: Index, WA
Elevation: 686 ft
Nearby Weather Stations

Elev 686 ft 47.80 °N, 121.55 °W | Updated 13 minutes ago

Overcast
Overcast
58.8 °F
Feels Like 58.8 °F
N
0.0
Wind Variable Wind from ENE
Gusts 0.0 mph

Today
High -- | Low -- °F
--% Chance of Precip.
Yesterday
High -- | Low -- °F
Precip. -- in
6:22 AM 7:50 PM
Waxing Crescent, 23% visible
Pressure 29.91 in
Visibility 10.0 miles
Clouds Scattered Clouds 800 ft
Overcast 2900 ft
Dew Point 58 °F
Humidity 97%
Rainfall 0.00 in
Snow Depth 0 in , 0 in
UV 1 out of 12
Pollen 2.20 out of 12
PM2.5 Good
Flu Activity Not available.
SPECI KPAE 301615Z 16007KT 10SM SCT008 OVC029 16/13 A2991 RMK AO2 T01560133

More Conditions Fewer Conditions

Pressure 29.91 in
Visibility 10.0 miles
Clouds Scattered Clouds 800 ft
Overcast 2900 ft
Dew Point 58 °F
Humidity 97%
Rainfall 0.00 in
Snow Depth 0 in , 0 in
UV 1 out of 12
Pollen 2.20 out of 12
PM2.5 Good
Flu Activity Not available.
SPECI KPAE 301615Z 16007KT 10SM SCT008 OVC029 16/13 A2991 RMK AO2 T01560133

More Conditions Fewer Conditions

10-Day Weather Forecast

Almanac

Astronomy

Aug. 30, 2014 Rise Set
Actual Time 6:22 AM PDT 7:50 PM PDT
Civil Twilight 5:49 AM PDT 8:23 PM PDT
Nautical Twilight 5:10 AM PDT 9:02 PM PDT
Astronomical Twilight 4:28 AM PDT 9:44 PM PDT
Moon 11:38 AM PDT 10:03 PM PDT
Length of Visible Light 14h 33m
Length of Day
13h 28m
Tomorrow will be 3m 20s shorter.
Waxing Crescent, 23% of the Moon is Illuminated
Today
Waxing Crescent
Sep 2
First Quarter
Sep 8
Full
Sep 15
Last Quarter
Sep 24
New

Today's Extremes

State Highs State Lows

Community

WunderPhotos

Upload Photos

1,748,556 photos uploaded!

WunderBlogs® & News

Nearby

Air Quality

  Air Quality AQ Index Pollutant
Yesterday Good
PM2.5
Yesterday Good
OZONE
Current Good
PM2.5
Saturday Good
OZONE
Saturday Good
PM2.5
Sunday Good
OZONE
Sunday Good
PM2.5
Monday Good
OZONE
Monday Good
PM2.5
Tuesday Good
OZONE
Tuesday Good
PM2.5
Wednesday Good
OZONE
Wednesday Good
PM2.5

Snow Depth

Station Depth Elevation
Alpine Meadows 0 in 3500 ft
Skookum Creek 0 in 3920 ft
Stevens Pass 0 in 4070 ft
Mount Gardner 0 in 3000 ft
Meadows Pass 0 in 3500 ft

Earthquake Activity

City Distance Mag. Time & Date
No recent earthquake activity has been reported nearby.
Minimum magnitude displayed is 2.5.

Coastal Water Temperatures

Place Temperature
No Stations Reporting

Nearby Weather Stations